createdAt,value
2024-01-20T00:00:47.358Z,22.78
2024-01-20T00:01:51.579Z,22.78
2024-01-20T00:02:55.745Z,22.77
2024-01-20T00:03:59.230Z,22.78
2024-01-20T00:05:03.842Z,22.79
2024-01-20T00:06:07.495Z,22.8
2024-01-20T00:07:11.899Z,22.81
2024-01-20T00:08:15.379Z,22.79
2024-01-20T00:09:19.225Z,22.77
2024-01-20T00:10:26.003Z,22.79
2024-01-20T00:11:30.753Z,22.8
2024-01-20T00:12:33.987Z,22.8
2024-01-20T00:13:37.314Z,22.79
2024-01-20T00:14:41.180Z,22.79
2024-01-20T00:15:44.882Z,22.78
2024-01-20T00:16:48.424Z,22.77
2024-01-20T00:17:52.136Z,22.76
2024-01-20T00:18:55.814Z,22.76
2024-01-20T00:19:59.695Z,22.76
2024-01-20T00:21:04.104Z,22.78
2024-01-20T00:22:07.745Z,22.78
2024-01-20T00:23:11.047Z,22.76
2024-01-20T00:24:14.818Z,22.76
2024-01-20T00:25:18.339Z,22.76
2024-01-20T00:26:22.395Z,22.77
2024-01-20T00:27:26.093Z,22.76
2024-01-20T00:28:31.221Z,22.75
2024-01-20T00:29:35.456Z,22.77
2024-01-20T00:30:39.094Z,22.76
2024-01-20T00:31:42.608Z,22.76
2024-01-20T00:32:46.519Z,22.75
2024-01-20T00:33:51.601Z,22.75
2024-01-20T00:35:00.016Z,22.76
2024-01-20T00:36:08.420Z,22.83
2024-01-20T00:37:11.607Z,22.82
2024-01-20T00:38:14.992Z,22.79
2024-01-20T00:39:18.641Z,22.78
2024-01-20T00:40:24.073Z,22.77
2024-01-20T00:41:27.288Z,22.78
2024-01-20T00:42:30.718Z,22.77
2024-01-20T00:43:34.004Z,22.76
2024-01-20T00:44:37.267Z,22.74
2024-01-20T00:45:40.515Z,22.73
2024-01-20T00:46:43.781Z,22.72
2024-01-20T00:47:47.058Z,22.71
2024-01-20T00:48:50.414Z,22.72
2024-01-20T00:49:53.852Z,22.73
2024-01-20T00:50:57.237Z,22.73
2024-01-20T00:52:00.514Z,22.72
2024-01-20T00:53:04.018Z,22.7
2024-01-20T00:54:07.244Z,22.7
2024-01-20T00:55:10.449Z,22.71
2024-01-20T00:56:13.746Z,22.7
2024-01-20T00:57:17.309Z,22.7
2024-01-20T00:58:20.548Z,22.72
2024-01-20T00:59:26.040Z,22.73
2024-01-20T01:00:29.179Z,22.73
2024-01-20T01:01:32.421Z,22.71
2024-01-20T01:02:35.637Z,22.7
2024-01-20T01:03:39.433Z,22.69
2024-01-20T01:04:42.907Z,22.69
2024-01-20T01:05:46.171Z,22.68
2024-01-20T01:06:49.440Z,22.68
2024-01-20T01:07:52.751Z,22.68
2024-01-20T01:08:58.149Z,22.68
2024-01-20T01:10:01.328Z,22.69
2024-01-20T01:11:04.632Z,22.71
2024-01-20T01:12:07.954Z,22.7
2024-01-20T01:13:11.260Z,22.71
2024-01-20T01:14:14.638Z,22.7
2024-01-20T01:15:18.395Z,22.7
2024-01-20T01:16:21.725Z,22.71
2024-01-20T01:17:24.953Z,22.68
2024-01-20T01:18:28.396Z,22.68
2024-01-20T01:19:31.633Z,22.67
2024-01-20T01:20:34.971Z,22.68
2024-01-20T01:21:38.292Z,22.7
2024-01-20T01:22:41.564Z,22.71
2024-01-20T01:23:44.783Z,22.7
2024-01-20T01:24:48.089Z,22.7
2024-01-20T01:25:51.456Z,22.68
2024-01-20T01:26:54.897Z,22.68
2024-01-20T01:27:58.259Z,22.67
2024-01-20T01:29:01.520Z,22.69
2024-01-20T01:30:04.933Z,22.69
2024-01-20T01:31:08.250Z,22.68
2024-01-20T01:32:11.677Z,22.68
2024-01-20T01:33:15.210Z,22.69
2024-01-20T01:34:18.694Z,22.68
2024-01-20T01:35:22.079Z,22.68
2024-01-20T01:36:25.520Z,22.68
2024-01-20T01:37:28.808Z,22.68
2024-01-20T01:38:32.032Z,22.68
2024-01-20T01:39:35.306Z,22.67
2024-01-20T01:40:38.594Z,22.65
2024-01-20T01:41:42.114Z,22.66
2024-01-20T01:42:46.214Z,22.68
2024-01-20T01:43:49.470Z,22.67
2024-01-20T01:44:52.888Z,22.66
2024-01-20T01:45:56.120Z,22.67
2024-01-20T01:46:59.506Z,22.67
2024-01-20T01:48:02.974Z,22.64
2024-01-20T01:49:06.366Z,22.66
2024-01-20T01:50:09.604Z,22.64
2024-01-20T01:51:12.881Z,22.63
2024-01-20T01:52:16.142Z,22.63
2024-01-20T01:53:19.450Z,22.62
2024-01-20T01:54:22.700Z,22.63
2024-01-20T01:55:26.104Z,22.63
2024-01-20T01:56:29.369Z,22.63
2024-01-20T01:57:32.528Z,22.64
2024-01-20T01:58:35.823Z,22.63
2024-01-20T01:59:39.494Z,22.63
2024-01-20T02:00:42.736Z,22.64
2024-01-20T02:01:46.159Z,22.64
2024-01-20T02:02:49.509Z,22.64
2024-01-20T02:03:53.152Z,22.65
2024-01-20T02:04:56.872Z,22.64
2024-01-20T02:06:00.121Z,22.63
2024-01-20T02:07:03.811Z,22.64
2024-01-20T02:08:07.366Z,22.65
2024-01-20T02:09:10.628Z,22.65
2024-01-20T02:10:14.000Z,22.63
2024-01-20T02:11:17.294Z,22.63
2024-01-20T02:12:20.611Z,22.63
2024-01-20T02:13:23.897Z,22.62
2024-01-20T02:14:27.112Z,22.62
2024-01-20T02:15:30.355Z,22.61
2024-01-20T02:16:33.666Z,22.61
2024-01-20T02:17:36.870Z,22.61
2024-01-20T02:18:40.288Z,22.61
2024-01-20T02:19:43.863Z,22.6
2024-01-20T02:20:47.223Z,22.61
2024-01-20T02:21:50.516Z,22.63
2024-01-20T02:22:53.809Z,22.62
2024-01-20T02:23:57.017Z,22.6
2024-01-20T02:25:00.361Z,22.59
2024-01-20T02:26:05.105Z,22.59
2024-01-20T02:27:08.398Z,22.6
2024-01-20T02:28:11.724Z,22.59
2024-01-20T02:29:14.950Z,22.59
2024-01-20T02:30:19.733Z,22.57
2024-01-20T02:31:23.023Z,22.59
2024-01-20T02:32:26.314Z,22.59
2024-01-20T02:33:29.847Z,22.59
2024-01-20T02:34:33.505Z,22.61
2024-01-20T02:35:36.726Z,22.6
2024-01-20T02:36:40.060Z,22.58
2024-01-20T02:37:43.270Z,22.59
2024-01-20T02:38:47.078Z,22.59
2024-01-20T02:39:50.493Z,22.6
2024-01-20T02:40:53.677Z,22.6
2024-01-20T02:41:56.957Z,22.59
2024-01-20T02:43:00.329Z,22.58
2024-01-20T02:44:03.584Z,22.58
2024-01-20T02:45:06.824Z,22.58
2024-01-20T02:46:10.444Z,22.58
2024-01-20T02:47:13.649Z,22.58
2024-01-20T02:48:19.458Z,22.58
2024-01-20T02:49:23.117Z,22.59
2024-01-20T02:50:26.727Z,22.59
2024-01-20T02:51:30.034Z,22.59
2024-01-20T02:52:33.487Z,22.59
2024-01-20T02:53:36.783Z,22.58
2024-01-20T02:54:40.043Z,22.57
2024-01-20T02:55:43.776Z,22.57
2024-01-20T02:56:47.040Z,22.56
2024-01-20T02:57:50.274Z,22.56
2024-01-20T02:58:55.020Z,22.57
2024-01-20T03:00:00.363Z,22.58
2024-01-20T03:01:03.990Z,22.6
2024-01-20T03:02:07.397Z,22.59
2024-01-20T03:03:10.660Z,22.58
2024-01-20T03:04:14.257Z,22.57
2024-01-20T03:05:17.829Z,22.55
2024-01-20T03:06:21.215Z,22.56
2024-01-20T03:07:24.548Z,22.58
2024-01-20T03:08:29.326Z,22.58
2024-01-20T03:09:32.560Z,22.59
2024-01-20T03:10:36.402Z,22.57
2024-01-20T03:11:39.606Z,22.57
2024-01-20T03:12:44.338Z,22.58
2024-01-20T03:13:47.671Z,22.58
2024-01-20T03:14:51.002Z,22.57
2024-01-20T03:15:56.375Z,22.55
2024-01-20T03:16:59.597Z,22.57
2024-01-20T03:18:02.975Z,22.56
2024-01-20T03:19:06.633Z,22.57
2024-01-20T03:20:10.042Z,22.56
2024-01-20T03:21:13.336Z,22.55
2024-01-20T03:22:18.693Z,22.55
2024-01-20T03:23:23.885Z,22.56
2024-01-20T03:24:27.081Z,22.56
2024-01-20T03:25:30.556Z,22.56
2024-01-20T03:26:33.775Z,22.56
2024-01-20T03:27:37.078Z,22.54
2024-01-20T03:28:40.640Z,22.54
2024-01-20T03:29:43.927Z,22.54
2024-01-20T03:30:47.614Z,22.52
2024-01-20T03:31:52.953Z,22.52
2024-01-20T03:33:02.291Z,22.52
2024-01-20T03:34:05.905Z,22.58
2024-01-20T03:35:09.412Z,22.58
2024-01-20T03:36:12.782Z,22.57
2024-01-20T03:37:16.123Z,22.56
2024-01-20T03:38:19.476Z,22.55
2024-01-20T03:39:22.746Z,22.54
2024-01-20T03:40:26.570Z,22.53
2024-01-20T03:41:34.268Z,22.57
2024-01-20T03:42:37.596Z,22.56
2024-01-20T03:43:40.962Z,22.55
2024-01-20T03:44:45.679Z,22.52
2024-01-20T03:45:48.869Z,22.53
2024-01-20T03:46:52.112Z,22.52
2024-01-20T03:47:55.541Z,22.52
2024-01-20T03:48:59.097Z,22.52
2024-01-20T03:50:02.938Z,22.52
2024-01-20T03:51:06.380Z,22.51
2024-01-20T03:52:09.781Z,22.52
2024-01-20T03:53:13.029Z,22.51
2024-01-20T03:54:16.362Z,22.51
2024-01-20T03:55:19.806Z,22.51
2024-01-20T03:56:22.984Z,22.51
2024-01-20T03:57:26.296Z,22.51
2024-01-20T03:58:29.650Z,22.5
2024-01-20T03:59:32.897Z,22.49
2024-01-20T04:00:36.174Z,22.5
2024-01-20T04:01:41.684Z,22.49
2024-01-20T04:02:44.897Z,22.51
2024-01-20T04:03:48.335Z,22.51
2024-01-20T04:04:51.842Z,22.49
2024-01-20T04:05:55.198Z,22.5
2024-01-20T04:06:58.661Z,22.49
2024-01-20T04:08:01.932Z,22.5
2024-01-20T04:09:05.246Z,22.49
2024-01-20T04:10:08.824Z,22.49
2024-01-20T04:11:12.016Z,22.49
2024-01-20T04:12:15.315Z,22.49
2024-01-20T04:13:18.682Z,22.48
2024-01-20T04:14:21.940Z,22.47
2024-01-20T04:15:26.325Z,22.48
2024-01-20T04:16:29.689Z,22.48
2024-01-20T04:17:32.916Z,22.48
2024-01-20T04:18:36.737Z,22.49
2024-01-20T04:19:40.354Z,22.49
2024-01-20T04:20:43.666Z,22.48
2024-01-20T04:21:46.834Z,22.48
2024-01-20T04:22:50.073Z,22.47
2024-01-20T04:23:53.335Z,22.47
2024-01-20T04:24:56.856Z,22.47
2024-01-20T04:26:01.149Z,22.46
2024-01-20T04:27:04.324Z,22.47
2024-01-20T04:28:08.744Z,22.47
2024-01-20T04:29:11.964Z,22.47
2024-01-20T04:30:15.263Z,22.47
2024-01-20T04:31:18.645Z,22.46
2024-01-20T04:32:21.872Z,22.45
2024-01-20T04:33:25.214Z,22.45
2024-01-20T04:34:29.047Z,22.46
2024-01-20T04:35:32.550Z,22.44
2024-01-20T04:36:35.839Z,22.45
2024-01-20T04:37:39.245Z,22.45
2024-01-20T04:38:42.471Z,22.45
2024-01-20T04:39:45.770Z,22.43
2024-01-20T04:40:49.069Z,22.44
2024-01-20T04:41:52.298Z,22.44
2024-01-20T04:42:56.596Z,22.44
2024-01-20T04:43:59.810Z,22.45
2024-01-20T04:45:03.072Z,22.44
2024-01-20T04:46:06.335Z,22.44
2024-01-20T04:47:09.483Z,22.44
2024-01-20T04:48:12.890Z,22.45
2024-01-20T04:49:17.139Z,22.44
2024-01-20T04:50:20.761Z,22.45
2024-01-20T04:51:25.177Z,22.44
2024-01-20T04:52:28.826Z,22.45
2024-01-20T04:53:32.053Z,22.45
2024-01-20T04:54:35.267Z,22.44
2024-01-20T04:55:38.710Z,22.43
2024-01-20T04:56:41.944Z,22.42
2024-01-20T04:57:45.177Z,22.42
2024-01-20T04:58:48.445Z,22.43
2024-01-20T04:59:51.776Z,22.41
2024-01-20T05:00:55.382Z,22.42
2024-01-20T05:01:58.719Z,22.41
2024-01-20T05:03:02.024Z,22.42
2024-01-20T05:04:05.815Z,22.42
2024-01-20T05:05:09.305Z,22.42
2024-01-20T05:06:12.672Z,22.42
2024-01-20T05:07:16.363Z,22.43
2024-01-20T05:08:19.948Z,22.44
2024-01-20T05:09:23.234Z,22.42
2024-01-20T05:10:26.749Z,22.42
2024-01-20T05:11:30.582Z,22.42
2024-01-20T05:12:33.825Z,22.41
2024-01-20T05:13:37.320Z,22.41
2024-01-20T05:14:40.506Z,22.41
2024-01-20T05:15:43.699Z,22.41
2024-01-20T05:16:48.959Z,22.41
2024-01-20T05:17:52.338Z,22.42
2024-01-20T05:18:56.035Z,22.42
2024-01-20T05:19:59.783Z,22.43
2024-01-20T05:21:03.793Z,22.43
2024-01-20T05:22:07.186Z,22.43
2024-01-20T05:23:10.529Z,22.43
2024-01-20T05:24:13.823Z,22.4
2024-01-20T05:25:17.230Z,22.41
2024-01-20T05:26:20.478Z,22.4
2024-01-20T05:27:23.775Z,22.4
2024-01-20T05:28:27.070Z,22.4
2024-01-20T05:29:30.330Z,22.39
2024-01-20T05:30:33.566Z,22.41
2024-01-20T05:31:37.021Z,22.4
2024-01-20T05:32:40.788Z,22.42
2024-01-20T05:33:44.140Z,22.42
2024-01-20T05:34:47.869Z,22.4
2024-01-20T05:35:51.106Z,22.39
2024-01-20T05:36:54.341Z,22.37
2024-01-20T05:37:57.635Z,22.37
2024-01-20T05:39:02.892Z,22.39
2024-01-20T05:40:06.159Z,22.41
2024-01-20T05:41:10.665Z,22.41
2024-01-20T05:42:16.323Z,22.42
2024-01-20T05:43:19.680Z,22.42
2024-01-20T05:44:22.935Z,22.4
2024-01-20T05:45:26.276Z,22.4
2024-01-20T05:46:29.648Z,22.4
2024-01-20T05:47:32.918Z,22.38
2024-01-20T05:48:36.229Z,22.38
2024-01-20T05:49:40.136Z,22.38
2024-01-20T05:50:43.384Z,22.39
2024-01-20T05:51:46.563Z,22.38
2024-01-20T05:52:49.802Z,22.38
2024-01-20T05:53:53.090Z,22.38
2024-01-20T05:54:56.608Z,22.38
2024-01-20T05:55:59.804Z,22.37
2024-01-20T05:57:03.017Z,22.36
2024-01-20T05:58:06.384Z,22.37
2024-01-20T05:59:09.563Z,22.37
2024-01-20T06:00:12.782Z,22.37
2024-01-20T06:01:16.285Z,22.36
2024-01-20T06:02:19.654Z,22.35
2024-01-20T06:03:22.973Z,22.35
2024-01-20T06:04:26.644Z,22.36
2024-01-20T06:05:30.116Z,22.36
2024-01-20T06:06:39.668Z,22.35
2024-01-20T06:07:43.055Z,22.4
2024-01-20T06:08:46.262Z,22.4
2024-01-20T06:09:49.408Z,22.4
2024-01-20T06:10:52.681Z,22.37
2024-01-20T06:11:56.027Z,22.38
2024-01-20T06:12:59.501Z,22.36
2024-01-20T06:14:02.661Z,22.36
2024-01-20T06:15:05.785Z,22.34
2024-01-20T06:16:09.119Z,22.35
2024-01-20T06:17:12.355Z,22.35
2024-01-20T06:18:15.580Z,22.35
2024-01-20T06:19:19.149Z,22.36
2024-01-20T06:20:24.061Z,22.35
2024-01-20T06:21:33.321Z,22.36
2024-01-20T06:22:36.547Z,22.4
2024-01-20T06:23:39.730Z,22.39
2024-01-20T06:24:42.977Z,22.38
2024-01-20T06:25:46.529Z,22.37
2024-01-20T06:26:49.744Z,22.35
2024-01-20T06:27:52.939Z,22.35
2024-01-20T06:28:56.163Z,22.34
2024-01-20T06:29:59.421Z,22.33
2024-01-20T06:31:03.632Z,22.33
2024-01-20T06:32:06.793Z,22.34
2024-01-20T06:33:10.223Z,22.34
2024-01-20T06:34:14.160Z,22.34
2024-01-20T06:35:17.721Z,22.33
2024-01-20T06:36:20.950Z,22.34
2024-01-20T06:37:24.294Z,22.33
2024-01-20T06:38:27.561Z,22.33
2024-01-20T06:39:30.836Z,22.34
2024-01-20T06:40:34.235Z,22.32
2024-01-20T06:41:38.524Z,22.34
2024-01-20T06:42:41.790Z,22.34
2024-01-20T06:43:44.969Z,22.34
2024-01-20T06:44:48.225Z,22.35
2024-01-20T06:45:51.504Z,22.32
2024-01-20T06:46:54.936Z,22.32
2024-01-20T06:47:58.302Z,22.33
2024-01-20T06:49:02.127Z,22.33
2024-01-20T06:50:05.618Z,22.33
2024-01-20T06:51:08.940Z,22.32
2024-01-20T06:52:12.360Z,22.32
2024-01-20T06:53:15.733Z,22.31
2024-01-20T06:54:19.052Z,22.31
2024-01-20T06:55:22.520Z,22.3
2024-01-20T06:56:25.837Z,22.31
2024-01-20T06:57:29.108Z,22.31
2024-01-20T06:58:32.437Z,22.31
2024-01-20T06:59:35.731Z,22.31
2024-01-20T07:00:38.980Z,22.32
2024-01-20T07:01:42.496Z,22.32
2024-01-20T07:02:45.593Z,22.32
2024-01-20T07:03:48.862Z,22.31
2024-01-20T07:04:52.173Z,22.31
2024-01-20T07:05:55.513Z,22.3
2024-01-20T07:06:59.126Z,22.29
2024-01-20T07:08:02.295Z,22.28
2024-01-20T07:09:07.111Z,22.28
2024-01-20T07:10:10.571Z,22.29
2024-01-20T07:11:13.907Z,22.32
2024-01-20T07:12:17.045Z,22.32
2024-01-20T07:13:20.460Z,22.3
2024-01-20T07:14:25.223Z,22.29
2024-01-20T07:15:28.526Z,22.3
2024-01-20T07:16:31.892Z,22.3
2024-01-20T07:17:35.151Z,22.3
2024-01-20T07:18:38.678Z,22.29
2024-01-20T07:19:42.082Z,22.29
2024-01-20T07:20:45.404Z,22.28
2024-01-20T07:21:48.905Z,22.29
2024-01-20T07:22:52.182Z,22.29
2024-01-20T07:23:55.448Z,22.28
2024-01-20T07:24:58.863Z,22.29
2024-01-20T07:26:02.017Z,22.28
2024-01-20T07:27:05.180Z,22.29
2024-01-20T07:28:10.652Z,22.28
2024-01-20T07:29:13.860Z,22.3
2024-01-20T07:30:17.073Z,22.3
2024-01-20T07:31:20.466Z,22.29
2024-01-20T07:32:23.796Z,22.28
2024-01-20T07:33:27.124Z,22.29
2024-01-20T07:34:30.924Z,22.3
2024-01-20T07:35:34.524Z,22.3
2024-01-20T07:36:37.800Z,22.3
2024-01-20T07:37:41.322Z,22.31
2024-01-20T07:38:44.500Z,22.3
2024-01-20T07:39:48.000Z,22.29
2024-01-20T07:40:51.268Z,22.28
2024-01-20T07:41:54.486Z,22.28
2024-01-20T07:42:57.868Z,22.28
2024-01-20T07:44:01.148Z,22.27
2024-01-20T07:45:04.448Z,22.29
2024-01-20T07:46:08.023Z,22.29
2024-01-20T07:47:13.326Z,22.28
2024-01-20T07:48:16.566Z,22.31
2024-01-20T07:49:20.522Z,22.3
2024-01-20T07:50:24.234Z,22.3
2024-01-20T07:51:27.531Z,22.31
2024-01-20T07:52:30.976Z,22.3
2024-01-20T07:53:34.233Z,22.28
2024-01-20T07:54:37.550Z,22.27
2024-01-20T07:55:41.054Z,22.27
2024-01-20T07:56:44.271Z,22.27
2024-01-20T07:57:47.848Z,22.28
2024-01-20T07:58:51.061Z,22.27
2024-01-20T07:59:54.353Z,22.27
2024-01-20T08:00:57.972Z,22.27
2024-01-20T08:02:01.643Z,22.27
2024-01-20T08:03:04.934Z,22.26
2024-01-20T08:04:08.757Z,22.29
2024-01-20T08:05:12.251Z,22.28
2024-01-20T08:06:15.512Z,22.27
2024-01-20T08:07:19.286Z,22.27
2024-01-20T08:08:22.843Z,22.27
2024-01-20T08:09:26.114Z,22.25
2024-01-20T08:10:29.604Z,22.25
2024-01-20T08:11:32.847Z,22.25
2024-01-20T08:12:36.111Z,22.25
2024-01-20T08:13:39.633Z,22.25
2024-01-20T08:14:42.789Z,22.24
2024-01-20T08:15:46.287Z,22.24
2024-01-20T08:16:49.667Z,22.26
2024-01-20T08:17:52.951Z,22.25
2024-01-20T08:18:56.344Z,22.25
2024-01-20T08:20:02.160Z,22.24
2024-01-20T08:21:05.421Z,22.27
2024-01-20T08:22:10.338Z,22.26
2024-01-20T08:23:13.542Z,22.27
2024-01-20T08:24:16.830Z,22.27
2024-01-20T08:25:20.177Z,22.26
2024-01-20T08:26:23.402Z,22.25
2024-01-20T08:27:28.731Z,22.24
2024-01-20T08:28:32.032Z,22.27
2024-01-20T08:29:35.291Z,22.28
2024-01-20T08:30:38.553Z,22.28
2024-01-20T08:31:41.881Z,22.26
2024-01-20T08:32:45.621Z,22.26
2024-01-20T08:33:49.273Z,22.25
2024-01-20T08:34:53.140Z,22.25
2024-01-20T08:35:56.413Z,22.27
2024-01-20T08:36:59.708Z,22.26
2024-01-20T08:38:02.882Z,22.26
2024-01-20T08:39:11.669Z,22.25
2024-01-20T08:40:15.052Z,22.3
2024-01-20T08:41:18.270Z,22.3
2024-01-20T08:42:21.592Z,22.3
2024-01-20T08:43:25.404Z,22.29
2024-01-20T08:44:28.716Z,22.27
2024-01-20T08:45:31.959Z,22.25
2024-01-20T08:46:35.357Z,22.28
2024-01-20T08:47:38.589Z,22.28
2024-01-20T08:48:41.927Z,22.28
2024-01-20T08:49:45.530Z,22.28
2024-01-20T08:50:48.729Z,22.29
2024-01-20T08:51:51.961Z,22.28
2024-01-20T08:52:55.295Z,22.27
2024-01-20T08:53:58.627Z,22.27
2024-01-20T08:55:01.821Z,22.29
2024-01-20T08:56:05.156Z,22.28
2024-01-20T08:57:08.481Z,22.28
2024-01-20T08:58:11.883Z,22.28
2024-01-20T08:59:15.177Z,22.27
2024-01-20T09:00:18.555Z,22.29
2024-01-20T09:01:22.105Z,22.3
2024-01-20T09:02:25.505Z,22.31
2024-01-20T09:03:28.893Z,22.31
2024-01-20T09:04:32.496Z,22.32
2024-01-20T09:05:37.613Z,22.31
2024-01-20T09:06:42.883Z,22.34
2024-01-20T09:07:46.386Z,22.34
2024-01-20T09:08:49.714Z,22.34
2024-01-20T09:09:52.873Z,22.33
2024-01-20T09:10:56.065Z,22.33
2024-01-20T09:11:59.357Z,22.33
2024-01-20T09:13:02.560Z,22.34
2024-01-20T09:14:05.801Z,22.34
2024-01-20T09:15:09.227Z,22.33
2024-01-20T09:16:12.818Z,22.34
2024-01-20T09:17:19.274Z,22.32
2024-01-20T09:18:24.149Z,22.35
2024-01-20T09:19:29.033Z,22.38
2024-01-20T09:20:32.882Z,22.38
2024-01-20T09:21:36.608Z,22.37
2024-01-20T09:22:40.388Z,22.36
2024-01-20T09:23:43.671Z,22.36
2024-01-20T09:24:46.936Z,22.38
2024-01-20T09:25:50.245Z,22.37
2024-01-20T09:26:53.489Z,22.36
2024-01-20T09:27:56.799Z,22.36
2024-01-20T09:29:00.018Z,22.36
2024-01-20T09:30:03.277Z,22.35
2024-01-20T09:31:06.743Z,22.35
2024-01-20T09:32:09.984Z,22.35
2024-01-20T09:33:13.239Z,22.35
2024-01-20T09:34:17.000Z,22.36
2024-01-20T09:35:20.589Z,22.36
2024-01-20T09:36:24.229Z,22.36
2024-01-20T09:37:27.608Z,22.37
2024-01-20T09:38:30.890Z,22.37
2024-01-20T09:39:34.177Z,22.37
2024-01-20T09:40:37.594Z,22.38
2024-01-20T09:41:40.834Z,22.37
2024-01-20T09:42:44.016Z,22.39
2024-01-20T09:43:49.893Z,22.39
2024-01-20T09:44:53.075Z,22.41
2024-01-20T09:45:56.279Z,22.4
2024-01-20T09:46:59.492Z,22.4
2024-01-20T09:48:02.761Z,22.39
2024-01-20T09:49:08.464Z,22.4
2024-01-20T09:50:11.855Z,22.42
2024-01-20T09:51:15.123Z,22.42
2024-01-20T09:52:18.477Z,22.42
2024-01-20T09:53:23.280Z,22.41
2024-01-20T09:54:26.509Z,22.42
2024-01-20T09:55:29.882Z,22.43
2024-01-20T09:56:35.243Z,22.43
2024-01-20T09:57:38.478Z,22.44
2024-01-20T09:58:41.722Z,22.45
2024-01-20T09:59:45.206Z,22.44
2024-01-20T10:00:48.568Z,22.44
2024-01-20T10:01:52.256Z,22.44
2024-01-20T10:02:55.518Z,22.43
2024-01-20T10:03:59.020Z,22.42
2024-01-20T10:05:02.379Z,22.42
2024-01-20T10:06:06.124Z,22.43
2024-01-20T10:07:09.489Z,22.42
2024-01-20T10:08:12.767Z,22.43
2024-01-20T10:09:16.057Z,22.41
2024-01-20T10:10:20.548Z,22.42
2024-01-20T10:11:23.749Z,22.44
2024-01-20T10:12:27.125Z,22.44
2024-01-20T10:13:30.633Z,22.45
2024-01-20T10:14:35.385Z,22.44
2024-01-20T10:15:38.610Z,22.45
2024-01-20T10:16:41.874Z,22.46
2024-01-20T10:17:45.168Z,22.44
2024-01-20T10:18:48.477Z,22.43
2024-01-20T10:19:51.953Z,22.43
2024-01-20T10:20:55.551Z,22.45
2024-01-20T10:21:58.916Z,22.44
2024-01-20T10:23:02.138Z,22.43
2024-01-20T10:24:05.481Z,22.44
2024-01-20T10:25:08.864Z,22.44
2024-01-20T10:26:12.111Z,22.45
2024-01-20T10:27:15.294Z,22.44
2024-01-20T10:28:18.738Z,22.45
2024-01-20T10:29:22.028Z,22.45
2024-01-20T10:30:27.289Z,22.46
2024-01-20T10:31:30.845Z,22.49
2024-01-20T10:32:42.776Z,22.48
2024-01-20T10:33:48.186Z,22.56
2024-01-20T10:34:55.684Z,22.62
2024-01-20T10:35:59.250Z,22.58
2024-01-20T10:37:02.462Z,22.55
2024-01-20T10:38:05.774Z,22.53
2024-01-20T10:39:09.059Z,22.5
2024-01-20T10:40:12.427Z,22.5
2024-01-20T10:41:15.745Z,22.48
2024-01-20T10:42:19.042Z,22.47
2024-01-20T10:43:22.423Z,22.47
2024-01-20T10:44:25.701Z,22.48
2024-01-20T10:45:28.991Z,22.49
2024-01-20T10:46:32.401Z,22.49
2024-01-20T10:47:35.708Z,22.49
2024-01-20T10:48:39.269Z,22.49
2024-01-20T10:49:42.734Z,22.49
2024-01-20T10:50:46.784Z,22.49
2024-01-20T10:51:50.089Z,22.49
2024-01-20T10:52:53.757Z,22.48
2024-01-20T10:53:57.042Z,22.48
2024-01-20T10:55:00.495Z,22.48
2024-01-20T10:56:03.711Z,22.48
2024-01-20T10:57:06.919Z,22.48
2024-01-20T10:58:10.258Z,22.49
2024-01-20T10:59:15.367Z,22.48
2024-01-20T11:00:21.501Z,22.53
2024-01-20T11:01:25.318Z,22.53
2024-01-20T11:02:28.645Z,22.5
2024-01-20T11:03:31.975Z,22.5
2024-01-20T11:04:35.472Z,22.49
2024-01-20T11:05:39.026Z,22.48
2024-01-20T11:06:42.361Z,22.49
2024-01-20T11:07:45.848Z,22.48
2024-01-20T11:08:49.102Z,22.49
2024-01-20T11:09:52.346Z,22.49
2024-01-20T11:10:55.634Z,22.48
2024-01-20T11:11:59.240Z,22.46
2024-01-20T11:13:03.483Z,22.46
2024-01-20T11:14:06.683Z,22.47
2024-01-20T11:15:09.959Z,22.48
2024-01-20T11:16:13.259Z,22.48
2024-01-20T11:17:16.469Z,22.46
2024-01-20T11:18:21.305Z,22.45
2024-01-20T11:19:24.787Z,22.48
2024-01-20T11:20:28.206Z,22.48
2024-01-20T11:21:31.476Z,22.47
2024-01-20T11:22:34.869Z,22.46
2024-01-20T11:23:38.204Z,22.46
2024-01-20T11:24:41.437Z,22.46
2024-01-20T11:25:44.821Z,22.48
2024-01-20T11:26:48.094Z,22.48
2024-01-20T11:27:51.350Z,22.48
2024-01-20T11:28:54.592Z,22.46
2024-01-20T11:29:57.944Z,22.46
2024-01-20T11:31:01.304Z,22.45
2024-01-20T11:32:04.524Z,22.45
2024-01-20T11:33:07.867Z,22.45
2024-01-20T11:34:11.604Z,22.46
2024-01-20T11:35:15.493Z,22.45
2024-01-20T11:36:18.761Z,22.46
2024-01-20T11:37:22.187Z,22.47
2024-01-20T11:38:25.385Z,22.47
2024-01-20T11:39:28.711Z,22.45
2024-01-20T11:40:32.094Z,22.46
2024-01-20T11:41:35.535Z,22.46
2024-01-20T11:42:38.950Z,22.47
2024-01-20T11:43:42.258Z,22.47
2024-01-20T11:44:45.634Z,22.45
2024-01-20T11:45:48.878Z,22.45
2024-01-20T11:46:52.374Z,22.45
2024-01-20T11:47:55.601Z,22.46
2024-01-20T11:48:58.976Z,22.46
2024-01-20T11:50:02.327Z,22.47
2024-01-20T11:51:05.759Z,22.46
2024-01-20T11:52:09.056Z,22.47
2024-01-20T11:53:12.230Z,22.47
2024-01-20T11:54:15.481Z,22.46
2024-01-20T11:55:20.832Z,22.47
2024-01-20T11:56:23.980Z,22.48
2024-01-20T11:57:27.209Z,22.47
2024-01-20T11:58:30.641Z,22.48
2024-01-20T11:59:33.919Z,22.48
2024-01-20T12:00:37.227Z,22.48
2024-01-20T12:01:41.031Z,22.48
2024-01-20T12:02:44.339Z,22.48
2024-01-20T12:03:47.625Z,22.49
2024-01-20T12:04:51.541Z,22.48
2024-01-20T12:06:00.430Z,22.53
2024-01-20T12:07:04.014Z,22.52
2024-01-20T12:08:07.640Z,22.51
2024-01-20T12:09:12.961Z,22.5
2024-01-20T12:10:16.185Z,22.5
2024-01-20T12:11:19.530Z,22.49
2024-01-20T12:12:22.832Z,22.48
2024-01-20T12:13:26.133Z,22.46
2024-01-20T12:14:29.454Z,22.46
2024-01-20T12:15:32.714Z,22.46
2024-01-20T12:16:36.220Z,22.45
2024-01-20T12:17:39.547Z,22.44
2024-01-20T12:18:43.010Z,22.46
2024-01-20T12:19:46.832Z,22.46
2024-01-20T12:20:50.572Z,22.47
2024-01-20T12:21:53.759Z,22.46
2024-01-20T12:22:57.112Z,22.46
2024-01-20T12:24:00.332Z,22.47
2024-01-20T12:25:03.732Z,22.44
2024-01-20T12:26:06.924Z,22.43
2024-01-20T12:27:10.342Z,22.43
2024-01-20T12:28:13.647Z,22.45
2024-01-20T12:29:16.913Z,22.46
2024-01-20T12:30:20.213Z,22.46
2024-01-20T12:31:23.612Z,22.45
2024-01-20T12:32:26.836Z,22.46
2024-01-20T12:33:30.226Z,22.44
2024-01-20T12:34:33.752Z,22.44
2024-01-20T12:35:39.201Z,22.44
2024-01-20T12:36:42.762Z,22.47
2024-01-20T12:37:46.396Z,22.48
2024-01-20T12:38:49.697Z,22.47
2024-01-20T12:39:52.972Z,22.46
2024-01-20T12:40:56.216Z,22.46
2024-01-20T12:41:59.520Z,22.45
2024-01-20T12:43:02.843Z,22.44
2024-01-20T12:44:08.097Z,22.44
2024-01-20T12:45:11.371Z,22.45
2024-01-20T12:46:14.797Z,22.45
2024-01-20T12:47:18.070Z,22.45
2024-01-20T12:48:21.362Z,22.44
2024-01-20T12:49:24.976Z,22.46
2024-01-20T12:50:28.571Z,22.46
2024-01-20T12:51:31.897Z,22.44
2024-01-20T12:52:35.331Z,22.44
2024-01-20T12:53:38.536Z,22.44
2024-01-20T12:54:41.744Z,22.43
2024-01-20T12:55:45.118Z,22.43
2024-01-20T12:56:48.365Z,22.44
2024-01-20T12:57:51.699Z,22.43
2024-01-20T12:58:55.047Z,22.43
2024-01-20T12:59:58.289Z,22.44
2024-01-20T13:01:03.098Z,22.42
2024-01-20T13:02:06.497Z,22.44
2024-01-20T13:03:09.835Z,22.44
2024-01-20T13:04:13.212Z,22.44
2024-01-20T13:05:16.550Z,22.43
2024-01-20T13:06:20.213Z,22.45
2024-01-20T13:07:23.890Z,22.45
2024-01-20T13:08:27.280Z,22.44
2024-01-20T13:09:30.531Z,22.44
2024-01-20T13:10:34.018Z,22.44
2024-01-20T13:11:37.203Z,22.44
2024-01-20T13:12:40.381Z,22.42
2024-01-20T13:13:43.895Z,22.42
2024-01-20T13:14:48.734Z,22.42
2024-01-20T13:15:52.985Z,22.43
2024-01-20T13:16:56.405Z,22.43
2024-01-20T13:17:59.751Z,22.43
2024-01-20T13:19:03.226Z,22.43
2024-01-20T13:20:06.542Z,22.43
2024-01-20T13:21:09.898Z,22.43
2024-01-20T13:22:13.312Z,22.43
2024-01-20T13:23:16.718Z,22.42
2024-01-20T13:24:19.990Z,22.42
2024-01-20T13:25:26.035Z,22.42
2024-01-20T13:26:31.882Z,22.47
2024-01-20T13:27:35.594Z,22.47
2024-01-20T13:28:38.960Z,22.46
2024-01-20T13:29:42.122Z,22.44
2024-01-20T13:30:46.980Z,22.42
2024-01-20T13:31:54.778Z,22.48
2024-01-20T13:32:58.041Z,22.46
2024-01-20T13:34:01.479Z,22.44
2024-01-20T13:35:05.099Z,22.44
2024-01-20T13:36:10.391Z,22.42
2024-01-20T13:37:13.760Z,22.44
2024-01-20T13:38:16.998Z,22.43
2024-01-20T13:39:20.328Z,22.44
2024-01-20T13:40:23.757Z,22.44
2024-01-20T13:41:26.974Z,22.42